• Join FlightAware (Why Join?)
  • Login
  • US Flag GB Flag 
14:32 EDT


 

Airport Tracker/Info


-or-


 

Live Flight TrackerFlight Track Log ✈ FLG3617 ✈ 15-May-2013 ✈ KDTW - KMBS

Flight Track Log - Related Links

Times and Time Zones

All times are in EDT time to prevent confusion due to time zone crossing. See the FLG3617 flight status page for this flight to view local times or setup timezone preferences in your user account.

Time Position Orientation Groundspeed Altitude Reporting Facility
EDT Latitude Longitude Course Direction KTS MPH feet Rate Location/Type
14:02 42.1994 -83.3581 North 155 178 1,500  Level Cleveland Center
14:04 42.1975 -83.4392 268° West 213 245 4,000 1,080 Climbing Cleveland Center
14:05 42.2019 -83.5153 275° West 275 316 4,000  Level Cleveland Center
14:06 42.4947 -83.3500 North  Level FlightAware Approximate
14:06 42.2714 -83.5633 333° Northwest 256 295 4,000  Level Cleveland Center
14:07 42.5683 -83.3500 North  Level FlightAware Approximate
14:07 42.3333 -83.5914 341° North 250 288 4,000  Level Cleveland Center
14:08 42.6420 -83.3500 North  Level FlightAware Approximate
14:08 42.4106 -83.5894 North 254 292 4,000  Level Cleveland Center
14:09 42.4756 -83.5672 14° North 259 298 4,000 480 Level Cleveland Center
14:10 42.5475 -83.5342 19° North 271 312 5,000 960 Climbing Cleveland Center
14:12 42.6637 -83.5975 338° Northwest  Level Estimated
14:19 43.1419 -83.8609 338° Northwest  Level Estimated
14:20 43.2102 -83.8989 338° Northwest  Level Estimated
14:21 43.2784 -83.9370 338° Northwest  Level Estimated
14:22 43.3467 -83.9751 338° Northwest  Level Estimated
14:23 43.4149 -84.0133 338° Northwest  Level Estimated
14:24 43.4831 -84.0516 338° Northwest  Level Estimated
14:25 43.5329 -84.0796 338° Northwest  Level Estimated
14:26 43.5329 -84.0796 166° South  Level Estimated
14:27 43.5329 -84.0796 166° South  Level Estimated
14:28 43.5329 -84.0796 166° South  Level Estimated
14:29 43.5329 -84.0796 166° South  Level Estimated
14:30 43.5329 -84.0796 166° South  Level Estimated
14:31 43.5329 -84.0796 166° South  Level Estimated